Time,TemperatureF,DewpointF,PressureIn,WindDirection,WindDirectionDegrees,WindSpeedMPH,WindSpeedGustMPH,Humidity,HourlyPrecipIn,Conditions,Clouds,dailyrainin,SoftwareType,DateUTC
2013-03-24 00:04:00,40.1,38.0,29.91,ESE,120,0.0,0.0,92,0.00,,,0.04,weatherlink.com 1.10,2013-03-24 04:04:00,
2013-03-24 00:19:00,39.9,38.0,29.91,ESE,120,0.0,0.0,93,0.00,,,0.04,weatherlink.com 1.10,2013-03-24 04:19:00,
2013-03-24 00:34:00,40.1,38.0,29.88,ESE,120,0.0,0.0,93,0.00,,,0.04,weatherlink.com 1.10,2013-03-24 04:34:00,
2013-03-24 00:49:00,40.3,39.0,29.86,ESE,120,0.0,0.0,94,0.00,,,0.04,weatherlink.com 1.10,2013-03-24 04:49:00,
2013-03-24 01:04:00,40.5,39.0,29.87,ESE,120,0.0,0.0,94,0.00,,,0.04,weatherlink.com 1.10,2013-03-24 05:04:00,
2013-03-24 01:19:00,40.9,39.0,29.86,ESE,120,0.0,0.0,94,0.00,,,0.04,weatherlink.com 1.10,2013-03-24 05:19:00,
2013-03-24 01:34:00,41.3,40.0,29.84,ESE,120,0.0,0.0,94,0.00,,,0.04,weatherlink.com 1.10,2013-03-24 05:34:00,
2013-03-24 01:49:00,41.8,40.0,29.88,ESE,120,0.0,0.0,94,0.00,,,0.04,weatherlink.com 1.10,2013-03-24 05:49:00,
2013-03-24 02:04:00,42.1,40.0,29.90,ESE,120,0.0,0.0,93,0.00,,,0.04,weatherlink.com 1.10,2013-03-24 06:04:00,
2013-03-24 02:19:00,42.3,40.0,29.90,ESE,120,0.0,0.0,92,0.00,,,0.00,weatherlink.com 1.10,2013-03-24 06:19:00,
2013-03-24 02:34:00,42.6,41.0,29.91,ESE,120,0.0,0.0,92,0.00,,,0.00,weatherlink.com 1.10,2013-03-24 06:34:00,
2013-03-24 02:49:00,42.9,41.0,29.92,ESE,120,0.0,0.0,92,0.00,,,0.00,weatherlink.com 1.10,2013-03-24 06:49:00,
2013-03-24 03:04:00,43.2,41.0,29.90,ESE,120,0.0,0.0,92,0.01,,,0.01,weatherlink.com 1.10,2013-03-24 07:04:00,
2013-03-24 03:19:00,43.1,41.0,29.87,ESE,120,0.0,0.0,93,0.02,,,0.02,weatherlink.com 1.10,2013-03-24 07:19:00,
2013-03-24 03:34:00,43.1,42.0,29.84,ESE,120,0.0,0.0,94,0.02,,,0.02,weatherlink.com 1.10,2013-03-24 07:34:00,
2013-03-24 03:49:00,43.2,42.0,29.86,ESE,120,0.0,0.0,94,0.03,,,0.03,weatherlink.com 1.10,2013-03-24 07:49:00,
2013-03-24 04:04:00,43.1,42.0,29.85,ESE,120,0.0,0.0,95,0.03,,,0.04,weatherlink.com 1.10,2013-03-24 08:04:00,
2013-03-24 04:19:00,43.1,42.0,29.83,ESE,120,0.0,0.0,95,0.04,,,0.06,weatherlink.com 1.10,2013-03-24 08:19:00,
2013-03-24 04:34:00,43.1,42.0,29.82,ESE,120,0.0,1.0,95,0.05,,,0.07,weatherlink.com 1.10,2013-03-24 08:34:00,
2013-03-24 04:49:00,42.9,42.0,29.81,East,85,0.0,1.0,95,0.06,,,0.09,weatherlink.com 1.10,2013-03-24 08:49:00,
2013-03-24 05:04:00,42.8,42.0,29.81,SSE,153,0.0,1.0,95,0.08,,,0.12,weatherlink.com 1.10,2013-03-24 09:04:00,
2013-03-24 05:19:00,42.5,41.0,29.80,NE,44,0.0,2.0,95,0.09,,,0.15,weatherlink.com 1.10,2013-03-24 09:19:00,
2013-03-24 05:34:00,42.3,41.0,29.79,NE,44,0.0,2.0,95,0.12,,,0.19,weatherlink.com 1.10,2013-03-24 09:34:00,
2013-03-24 05:49:00,42.1,41.0,29.79,ENE,71,0.0,3.0,95,0.13,,,0.22,weatherlink.com 1.10,2013-03-24 09:49:00,
2013-03-24 06:04:00,41.8,41.0,29.79,East,94,0.0,3.0,95,0.14,,,0.26,weatherlink.com 1.10,2013-03-24 10:04:00,
2013-03-24 06:20:00,41.3,40.0,29.77,East,79,0.0,3.0,95,0.13,,,0.28,weatherlink.com 1.10,2013-03-24 10:20:00,
2013-03-24 06:35:00,41.2,40.0,29.76,East,101,0.0,2.0,95,0.10,,,0.29,weatherlink.com 1.10,2013-03-24 10:35:00,
2013-03-24 06:50:00,41.1,40.0,29.77,ENE,61,1.0,5.0,95,0.07,,,0.29,weatherlink.com 1.10,2013-03-24 10:50:00,
2013-03-24 07:05:00,40.9,40.0,29.75,East,94,0.0,3.0,95,0.04,,,0.30,weatherlink.com 1.10,2013-03-24 11:05:00,
2013-03-24 07:20:00,41.1,40.0,29.75,East,82,0.0,3.0,95,0.02,,,0.30,weatherlink.com 1.10,2013-03-24 11:20:00,
2013-03-24 07:35:00,40.9,40.0,29.72,ESE,119,0.0,3.0,95,0.01,,,0.30,weatherlink.com 1.10,2013-03-24 11:35:00,
2013-03-24 07:50:00,40.8,40.0,29.70,East,94,0.0,5.0,95,0.01,,,0.30,weatherlink.com 1.10,2013-03-24 11:50:00,
2013-03-24 08:05:00,40.8,39.0,29.70,East,98,0.0,10.0,94,0.00,,,0.30,weatherlink.com 1.10,2013-03-24 12:05:00,
2013-03-24 08:20:00,40.6,39.0,29.69,East,82,3.0,9.0,94,0.00,,,0.30,weatherlink.com 1.10,2013-03-24 12:20:00,
2013-03-24 08:35:00,40.6,39.0,29.67,ENE,78,2.0,10.0,94,0.00,,,0.30,weatherlink.com 1.10,2013-03-24 12:35:00,
2013-03-24 08:50:00,40.6,39.0,29.68,NNW,348,2.0,8.0,94,0.01,,,0.31,weatherlink.com 1.10,2013-03-24 12:50:00,
2013-03-24 09:05:00,40.8,39.0,29.69,NW,325,0.0,4.0,94,0.03,,,0.33,weatherlink.com 1.10,2013-03-24 13:05:00,
2013-03-24 09:20:00,40.8,39.0,29.75,ENE,61,0.0,3.0,94,0.11,,,0.41,weatherlink.com 1.10,2013-03-24 13:20:00,
2013-03-24 09:35:00,40.8,40.0,29.77,NNE,21,0.0,4.0,95,0.17,,,0.47,weatherlink.com 1.10,2013-03-24 13:35:00,
2013-03-24 09:50:00,40.5,39.0,29.76,East,79,1.0,3.0,95,0.19,,,0.50,weatherlink.com 1.10,2013-03-24 13:50:00,
2013-03-24 10:05:00,40.6,39.0,29.72,ESE,103,0.0,7.0,95,0.17,,,0.51,weatherlink.com 1.10,2013-03-24 14:05:00,
2013-03-24 10:20:00,40.6,39.0,29.70,East,92,0.0,4.0,95,0.10,,,0.52,weatherlink.com 1.10,2013-03-24 14:20:00,
2013-03-24 10:35:00,40.6,39.0,29.69,East,90,3.0,5.0,94,0.05,,,0.52,weatherlink.com 1.10,2013-03-24 14:35:00,
2013-03-24 10:50:00,40.3,39.0,29.68,NNE,12,1.0,11.0,93,0.02,,,0.52,weatherlink.com 1.10,2013-03-24 14:50:00,
2013-03-24 11:05:00,40.2,38.0,29.67,ENE,69,0.0,7.0,93,0.01,,,0.52,weatherlink.com 1.10,2013-03-24 15:05:00,
2013-03-24 11:20:00,40.2,39.0,29.67,NE,49,2.0,9.0,94,0.02,,,0.54,weatherlink.com 1.10,2013-03-24 15:20:00,
2013-03-24 11:35:00,40.2,39.0,29.67,ENE,65,0.0,6.0,94,0.06,,,0.58,weatherlink.com 1.10,2013-03-24 15:35:00,
2013-03-24 11:50:00,40.2,39.0,29.67,ENE,58,2.0,7.0,94,0.09,,,0.61,weatherlink.com 1.10,2013-03-24 15:50:00,
2013-03-24 12:05:00,40.3,39.0,29.64,WSW,258,1.0,6.0,95,0.10,,,0.62,weatherlink.com 1.10,2013-03-24 16:05:00,
2013-03-24 12:20:00,39.9,38.0,29.64,East,92,0.0,5.0,94,0.07,,,0.62,weatherlink.com 1.10,2013-03-24 16:20:00,
2013-03-24 12:35:00,40.1,39.0,29.63,East,90,5.0,9.0,94,0.05,,,0.63,weatherlink.com 1.10,2013-03-24 16:35:00,
2013-03-24 12:50:00,39.8,38.0,29.64,East,98,0.0,5.0,94,0.03,,,0.64,weatherlink.com 1.10,2013-03-24 16:50:00,
2013-03-24 13:05:00,39.8,38.0,29.65,ENE,63,0.0,8.0,94,0.04,,,0.66,weatherlink.com 1.10,2013-03-24 17:05:00,
2013-03-24 13:20:00,39.9,38.0,29.64,NNE,31,0.0,4.0,94,0.06,,,0.68,weatherlink.com 1.10,2013-03-24 17:20:00,
2013-03-24 13:35:00,40.1,39.0,29.64,East,86,1.0,5.0,95,0.05,,,0.68,weatherlink.com 1.10,2013-03-24 17:35:00,
2013-03-24 13:50:00,40.2,39.0,29.64,West,277,0.0,3.0,95,0.04,,,0.68,weatherlink.com 1.10,2013-03-24 17:50:00,
2013-03-24 14:05:00,40.2,39.0,29.64,ENE,69,0.0,5.0,95,0.03,,,0.69,weatherlink.com 1.10,2013-03-24 18:05:00,
2013-03-24 14:20:00,40.2,39.0,29.63,NW,320,0.0,5.0,94,0.01,,,0.69,weatherlink.com 1.10,2013-03-24 18:20:00,
2013-03-24 14:35:00,40.3,39.0,29.62,NNW,338,1.0,7.0,95,0.02,,,0.70,weatherlink.com 1.10,2013-03-24 18:35:00,
2013-03-24 14:50:00,40.3,39.0,29.62,NW,308,0.0,3.0,95,0.01,,,0.70,weatherlink.com 1.10,2013-03-24 18:50:00,
2013-03-24 15:05:00,40.2,39.0,29.59,East,82,0.0,5.0,94,0.01,,,0.70,weatherlink.com 1.10,2013-03-24 19:05:00,
2013-03-24 15:20:00,40.2,39.0,29.59,NNW,342,0.0,4.0,94,0.00,,,0.70,weatherlink.com 1.10,2013-03-24 19:20:00,
2013-03-24 15:35:00,40.6,39.0,29.59,NE,47,0.0,6.0,94,0.00,,,0.70,weatherlink.com 1.10,2013-03-24 19:35:00,
2013-03-24 15:50:00,40.6,39.0,29.60,ENE,75,0.0,3.0,94,0.00,,,0.70,weatherlink.com 1.10,2013-03-24 19:50:00,
2013-03-24 16:05:00,40.3,39.0,29.61,ENE,69,0.0,6.0,93,0.00,,,0.70,weatherlink.com 1.10,2013-03-24 20:05:00,
2013-03-24 16:20:00,40.3,39.0,29.59,East,92,3.0,5.0,93,0.00,,,0.70,weatherlink.com 1.10,2013-03-24 20:20:00,
2013-03-24 16:35:00,39.9,38.0,29.58,NE,52,1.0,6.0,92,0.00,,,0.70,weatherlink.com 1.10,2013-03-24 20:35:00,
2013-03-24 16:50:00,39.9,38.0,29.56,East,88,0.0,6.0,92,0.00,,,0.70,weatherlink.com 1.10,2013-03-24 20:50:00,
2013-03-24 17:05:00,39.9,37.0,29.56,ENE,68,0.0,5.0,90,0.00,,,0.70,weatherlink.com 1.10,2013-03-24 21:05:00,
2013-03-24 17:20:00,39.8,37.0,29.54,North,5,2.0,4.0,90,0.00,,,0.70,weatherlink.com 1.10,2013-03-24 21:20:00,
2013-03-24 17:35:00,39.8,37.0,29.57,SE,138,0.0,4.0,89,0.00,,,0.70,weatherlink.com 1.10,2013-03-24 21:35:00,
2013-03-24 17:50:00,39.6,36.0,29.57,NE,49,0.0,5.0,88,0.00,,,0.70,weatherlink.com 1.10,2013-03-24 21:50:00,
2013-03-24 18:05:00,39.8,37.0,29.57,ENE,69,0.0,3.0,88,0.00,,,0.70,weatherlink.com 1.10,2013-03-24 22:05:00,
2013-03-24 18:20:00,39.8,37.0,29.57,East,87,0.0,2.0,88,0.00,,,0.70,weatherlink.com 1.10,2013-03-24 22:20:00,
2013-03-24 18:35:00,39.8,37.0,29.59,SSE,148,0.0,2.0,88,0.00,,,0.70,weatherlink.com 1.10,2013-03-24 22:35:00,
2013-03-24 18:50:00,39.8,37.0,29.59,East,96,0.0,2.0,88,0.00,,,0.70,weatherlink.com 1.10,2013-03-24 22:50:00,
2013-03-24 19:05:00,39.8,37.0,29.59,ESE,102,1.0,1.0,88,0.00,,,0.70,weatherlink.com 1.10,2013-03-24 23:05:00,
2013-03-24 19:20:00,39.5,36.0,29.59,ESE,102,0.0,1.0,87,0.00,,,0.70,weatherlink.com 1.10,2013-03-24 23:20:00,
2013-03-24 19:35:00,39.3,36.0,29.59,East,101,0.0,1.0,88,0.00,,,0.70,weatherlink.com 1.10,2013-03-24 23:35:00,
2013-03-24 19:50:00,39.2,36.0,29.58,East,101,0.0,2.0,89,0.00,,,0.70,weatherlink.com 1.10,2013-03-24 23:50:00,
2013-03-24 20:05:00,39.1,36.0,29.59,ENE,60,0.0,2.0,89,0.00,,,0.70,weatherlink.com 1.10,2013-03-25 00:05:00,
2013-03-24 20:20:00,39.1,37.0,29.59,North,5,0.0,1.0,90,0.00,,,0.70,weatherlink.com 1.10,2013-03-25 00:20:00,
2013-03-24 20:35:00,38.9,36.0,29.63,SW,217,0.0,2.0,90,0.00,,,0.70,weatherlink.com 1.10,2013-03-25 00:35:00,
2013-03-24 20:50:00,38.8,36.0,29.64,ENE,69,0.0,3.0,91,0.00,,,0.70,weatherlink.com 1.10,2013-03-25 00:50:00,
2013-03-24 21:05:00,38.5,36.0,29.62,ENE,71,0.0,2.0,92,0.00,,,0.70,weatherlink.com 1.10,2013-03-25 01:05:00,
2013-03-24 21:20:00,38.3,37.0,29.60,ENE,78,0.0,2.0,93,0.00,,,0.70,weatherlink.com 1.10,2013-03-25 01:20:00,
2013-03-24 21:35:00,38.3,37.0,29.61,ENE,78,0.0,0.0,94,0.00,,,0.70,weatherlink.com 1.10,2013-03-25 01:35:00,
2013-03-24 21:50:00,38.2,37.0,29.61,East,92,0.0,1.0,94,0.00,,,0.70,weatherlink.com 1.10,2013-03-25 01:50:00,
2013-03-24 22:05:00,38.2,37.0,29.61,East,92,0.0,0.0,94,0.00,,,0.70,weatherlink.com 1.10,2013-03-25 02:05:00,
2013-03-24 22:20:00,38.2,37.0,29.60,East,100,0.0,2.0,94,0.00,,,0.70,weatherlink.com 1.10,2013-03-25 02:20:00,
2013-03-24 22:35:00,38.2,37.0,29.60,East,100,0.0,0.0,94,0.00,,,0.70,weatherlink.com 1.10,2013-03-25 02:35:00,
2013-03-24 22:50:00,38.3,37.0,29.60,East,100,0.0,1.0,94,0.00,,,0.70,weatherlink.com 1.10,2013-03-25 02:50:00,
2013-03-24 23:05:00,38.2,37.0,29.59,East,100,0.0,0.0,94,0.00,,,0.70,weatherlink.com 1.10,2013-03-25 03:05:00,
2013-03-24 23:20:00,38.3,37.0,29.59,East,100,0.0,0.0,94,0.00,,,0.70,weatherlink.com 1.10,2013-03-25 03:20:00,
2013-03-24 23:35:00,38.3,37.0,29.60,East,100,0.0,0.0,94,0.00,,,0.70,weatherlink.com 1.10,2013-03-25 03:35:00,
2013-03-24 23:51:00,38.2,37.0,29.59,East,100,0.0,2.0,94,0.00,,,0.70,weatherlink.com 1.10,2013-03-25 03:51:00,